TimeEDT,TemperatureF,Dew PointF,Humidity,Sea Level PressureIn,VisibilityMPH,Wind Direction,Wind SpeedMPH,Gust SpeedMPH,PrecipitationIn,Events,Conditions,WindDirDegrees,DateUTC
12:03 AM,62.6,62.6,100,30.03,7.0,NNE,19.6,27.6,0.00,Rain,Light Rain,20,2013-10-09 04:03:00
12:16 AM,62.6,62.6,100,30.03,8.0,NNE,20.7,31.1,0.00,Rain,Light Rain,20,2013-10-09 04:16:00
12:30 AM,62.6,62.6,100,30.03,6.0,NNE,16.1,27.6,0.01,Rain,Light Rain,20,2013-10-09 04:30:00
12:58 AM,62.1,62.1,100,30.03,3.0,North,16.1,28.8,0.12,Rain,Heavy Rain,10,2013-10-09 04:58:00
1:04 AM,62.6,62.6,100,30.03,2.5,North,18.4,26.5,0.03,Rain,Heavy Rain,10,2013-10-09 05:04:00
1:07 AM,62.6,62.6,100,30.03,2.5,North,18.4,25.3,0.05,Rain,Heavy Rain,10,2013-10-09 05:07:00
1:40 AM,62.6,62.6,100,30.01,3.0,North,18.4,29.9,0.17,Rain,Heavy Rain,10,2013-10-09 05:40:00
1:58 AM,62.1,62.1,100,30.02,5.0,NNE,20.7,27.6,0.19,Rain,Rain,20,2013-10-09 05:58:00
2:08 AM,62.6,62.6,100,30.02,5.0,NNE,19.6,31.1,0.01,Rain,Rain,20,2013-10-09 06:08:00
2:19 AM,62.6,62.6,100,30.01,3.0,North,21.9,31.1,0.05,Rain,Heavy Rain,10,2013-10-09 06:19:00
2:26 AM,62.6,62.6,100,30.00,2.5,North,18.4,28.8,0.09,Rain,Heavy Rain,10,2013-10-09 06:26:00
2:38 AM,62.6,62.6,100,29.99,3.0,North,21.9,29.9,0.14,Rain,Heavy Rain,10,2013-10-09 06:38:00
2:58 AM,62.1,62.1,100,29.99,5.0,North,23.0,34.5,0.18,Rain,Rain,10,2013-10-09 06:58:00
3:31 AM,62.6,62.6,100,29.98,2.5,NNE,20.7,29.9,0.10,Rain,Heavy Rain,20,2013-10-09 07:31:00
3:45 AM,62.6,62.6,100,29.97,3.0,NNE,20.7,31.1,0.17,Rain,Heavy Rain,20,2013-10-09 07:45:00
3:58 AM,63.0,63.0,100,29.97,4.0,NNE,23.0,31.1,0.22,Rain,Rain,20,2013-10-09 07:58:00
4:15 AM,62.6,62.6,100,29.97,3.0,North,18.4,27.6,0.07,Rain,Heavy Rain,10,2013-10-09 08:15:00
4:24 AM,62.6,62.6,100,29.96,3.0,North,19.6,28.8,0.10,Rain,Heavy Rain,10,2013-10-09 08:24:00
4:39 AM,62.6,62.6,100,29.95,2.5,NNE,26.5,35.7,0.18,Rain,Heavy Rain,20,2013-10-09 08:39:00
4:46 AM,62.6,62.6,100,29.95,3.0,NNE,23.0,39.1,0.21,Rain,Heavy Rain,20,2013-10-09 08:46:00
4:58 AM,63.0,63.0,100,29.96,5.0,NNE,24.2,33.4,0.23,Rain,Rain,20,2013-10-09 08:58:00
5:31 AM,62.6,62.6,100,29.96,4.0,NNE,24.2,35.7,0.05,Rain,Heavy Rain,20,2013-10-09 09:31:00
5:39 AM,62.6,62.6,100,29.95,5.0,NNE,18.4,32.2,0.07,Rain,Rain,20,2013-10-09 09:39:00
5:42 AM,62.6,62.6,100,29.95,5.0,NNE,23.0,32.2,0.08,Rain,Rain,20,2013-10-09 09:42:00
5:49 AM,62.6,62.6,100,29.95,4.0,NNE,19.6,32.2,0.09,Rain,Heavy Rain,20,2013-10-09 09:49:00
5:58 AM,64.0,64.0,100,29.95,4.0,NNE,23.0,32.2,0.12,Rain,Heavy Rain,20,2013-10-09 09:58:00
6:08 AM,64.4,64.4,100,29.96,2.5,NNE,19.6,35.7,0.04,Rain,Heavy Rain,20,2013-10-09 10:08:00
6:14 AM,64.4,64.4,100,29.96,3.0,NNE,21.9,31.1,0.06,Rain,Heavy Rain,20,2013-10-09 10:14:00
6:16 AM,64.4,64.4,100,29.95,3.0,NNE,18.4,31.1,0.07,Rain,Heavy Rain,20,2013-10-09 10:16:00
6:24 AM,64.4,64.4,100,29.95,3.0,NNE,23.0,28.8,0.10,Rain,Heavy Rain,20,2013-10-09 10:24:00
6:49 AM,64.4,64.4,100,29.92,4.0,NNE,25.3,33.4,0.17,Rain,Heavy Rain,20,2013-10-09 10:49:00
6:58 AM,64.0,64.0,100,29.93,2.5,NNE,23.0,34.5,0.21,Rain,Heavy Rain,20,2013-10-09 10:58:00
7:10 AM,64.4,64.4,100,29.92,2.0,NNE,25.3,36.8,0.09,Rain,Heavy Rain,20,2013-10-09 11:10:00
7:14 AM,64.4,64.4,100,29.92,1.8,NNE,24.2,36.8,0.12,Rain,Heavy Rain,20,2013-10-09 11:14:00
7:22 AM,64.4,64.4,100,29.93,2.5,NNE,26.5,38.0,0.15,Rain,Heavy Rain,20,2013-10-09 11:22:00
7:31 AM,64.4,64.4,100,29.93,4.0,North,18.4,38.0,0.16,Rain,Light Rain,10,2013-10-09 11:31:00
7:43 AM,64.4,64.4,100,29.93,4.0,North,24.2,35.7,0.18,Rain,Rain,10,2013-10-09 11:43:00
7:58 AM,64.9,64.9,100,29.93,6.0,NNE,24.2,35.7,0.19,Rain,Light Rain,20,2013-10-09 11:58:00
8:08 AM,64.4,64.4,100,29.93,2.5,NNE,23.0,34.5,0.02,Rain,Heavy Rain,20,2013-10-09 12:08:00
8:16 AM,64.4,64.4,100,29.94,1.2,NNE,23.0,33.4,0.06,Rain,Heavy Rain,20,2013-10-09 12:16:00
8:25 AM,64.4,64.4,100,29.94,3.0,NNE,20.7,34.5,0.06,Rain,Light Rain,20,2013-10-09 12:25:00
8:41 AM,64.4,64.4,100,29.94,2.5,NNE,26.5,35.7,0.08,Rain,Rain,20,2013-10-09 12:41:00
8:44 AM,64.4,64.4,100,29.95,1.8,NNE,20.7,35.7,0.09,Rain,Heavy Rain,20,2013-10-09 12:44:00
8:55 AM,64.4,64.4,100,29.95,2.0,NNE,19.6,28.8,0.12,Rain,Heavy Rain,20,2013-10-09 12:55:00
8:58 AM,64.9,64.9,100,29.95,2.5,NNE,17.3,28.8,0.12,Rain,Light Rain,20,2013-10-09 12:58:00
9:05 AM,64.4,64.4,100,29.95,8.0,NNE,16.1,23.0,0.00,Rain,Light Rain,20,2013-10-09 13:05:00
9:53 AM,66.2,66.2,100,29.94,1.8,NNE,21.9,31.1,0.03,Rain,Heavy Rain,20,2013-10-09 13:53:00
9:58 AM,66.0,66.0,100,29.94,1.5,NNE,23.0,31.1,0.04,Rain,Heavy Rain,20,2013-10-09 13:58:00
10:03 AM,66.2,66.2,100,29.94,3.0,NNE,20.7,31.1,0.00,Rain,Light Rain,20,2013-10-09 14:03:00
10:19 AM,66.2,66.2,100,29.94,1.8,NNE,21.9,32.2,0.02,Rain,Heavy Rain,20,2013-10-09 14:19:00
10:27 AM,66.2,66.2,100,29.93,2.0,North,23.0,35.7,0.04,Rain,Rain,10,2013-10-09 14:27:00
10:35 AM,66.2,66.2,100,29.93,3.0,NNE,21.9,32.2,0.04,Rain,Light Rain,20,2013-10-09 14:35:00
10:58 AM,66.0,66.0,100,29.94,3.0,NNE,23.0,34.5,0.05,Rain,Light Rain,20,2013-10-09 14:58:00
11:55 AM,66.2,66.2,100,29.93,2.0,NNE,21.9,34.5,0.02,,Overcast,20,2013-10-09 15:55:00
11:58 AM,66.0,66.0,100,29.94,2.0,North,18.4,34.5,0.02,Rain,Light Rain,10,2013-10-09 15:58:00
12:09 PM,66.2,66.2,100,29.93,5.0,North,20.7,34.5,0.01,Rain,Light Rain,10,2013-10-09 16:09:00
12:45 PM,66.2,66.2,100,29.92,10.0,NNE,25.3,35.7,0.01,,Overcast,20,2013-10-09 16:45:00
12:58 PM,66.9,66.9,100,29.93,10.0,North,19.6,28.8,0.01,,Overcast,10,2013-10-09 16:58:00
1:58 PM,66.9,66.0,97,29.91,10.0,North,20.7,29.9,0.00,Rain,Light Rain,10,2013-10-09 17:58:00
2:36 PM,66.2,66.2,100,29.90,1.8,North,19.6,31.1,0.02,Rain,Rain,360,2013-10-09 18:36:00
2:51 PM,66.2,66.2,100,29.90,2.0,North,18.4,29.9,0.03,,Overcast,360,2013-10-09 18:51:00
2:58 PM,66.0,66.0,100,29.90,2.0,North,18.4,29.9,0.04,,Overcast,360,2013-10-09 18:58:00
3:44 PM,66.2,66.2,100,29.89,5.0,North,18.4,26.5,0.01,Rain,Light Rain,360,2013-10-09 19:44:00
3:56 PM,66.2,66.2,100,29.89,2.5,North,16.1,26.5,0.02,,Overcast,350,2013-10-09 19:56:00
3:58 PM,64.9,64.9,100,29.89,2.5,North,16.1,25.3,0.02,,Overcast,360,2013-10-09 19:58:00
4:11 PM,64.4,64.4,100,29.89,1.5,North,16.1,24.2,0.01,,Overcast,350,2013-10-09 20:11:00
4:19 PM,64.4,64.4,100,29.89,3.0,North,16.1,24.2,0.01,Rain,Light Rain,360,2013-10-09 20:19:00
4:58 PM,64.9,64.9,100,29.89,6.0,North,18.4,32.2,0.01,Rain,Light Rain,350,2013-10-09 20:58:00
5:49 PM,64.4,64.4,100,29.88,2.5,North,16.1,31.1,0.01,Rain,Rain,350,2013-10-09 21:49:00
5:58 PM,64.0,64.0,100,29.89,2.0,North,18.4,25.3,0.03,Rain,Rain,350,2013-10-09 21:58:00
6:06 PM,64.4,64.4,100,29.88,3.0,North,21.9,28.8,0.00,Rain,Light Rain,350,2013-10-09 22:06:00
6:15 PM,62.6,62.6,100,29.88,8.0,North,17.3,29.9,0.00,Rain,Light Rain,350,2013-10-09 22:15:00
6:27 PM,62.6,62.6,100,29.88,10.0,North,18.4,25.3,0.00,,Overcast,350,2013-10-09 22:27:00
6:58 PM,63.0,63.0,100,29.88,6.0,North,20.7,27.6,0.01,Rain,Rain,350,2013-10-09 22:58:00
7:58 PM,63.0,63.0,100,29.87,10.0,North,17.3,28.8,0.00,,Overcast,350,2013-10-09 23:58:00
8:58 PM,63.0,63.0,100,29.88,10.0,North,18.4,24.2,N/A,,Overcast,350,2013-10-10 00:58:00
9:58 PM,63.0,63.0,100,29.88,10.0,North,16.1,23.0,N/A,,Overcast,350,2013-10-10 01:58:00
10:58 PM,63.0,63.0,100,29.87,8.0,North,16.1,24.2,N/A,,Overcast,350,2013-10-10 02:58:00
11:58 PM,63.0,63.0,100,29.86,10.0,North,16.1,25.3,N/A,,Overcast,350,2013-10-10 03:58:00